Time;durP1;ratioP1;P1;durP2;ratioP2;P2;SDS_P1;SDS_P2;PMS_P1;PMS_P2;Temp;Humidity;BMP_temperature;BMP_pressure;BME280_temperature;BME280_humidity;BME280_pressure;Samples;Min_cycle;Max_cycle;Signal;HPM_P1;HPM_P2
2023/07/20 00:02:05;;;;;;;4.68;2.13;;;;;;;;;;7377243;19;20021;-73
2023/07/20 00:04:31;;;;;;;6.47;2.40;;;;;;;;;;7398550;19;20010;-73
2023/07/20 00:06:56;;;;;;;7.28;2.30;;;;;;;;;;7374652;19;20014;-73
2023/07/20 00:09:21;;;;;;;5.05;2.13;;;;;;;;;;7374680;19;20014;-73
2023/07/20 00:11:50;;;;;;;19.58;6.13;;;;;;;;;;7374441;19;20487;-73
2023/07/20 00:14:16;;;;;;;6.90;2.15;;;;;;;;;;7378010;19;20014;-73
2023/07/20 00:16:41;;;;;;;7.13;2.53;;;;;;;;;;7402476;19;20014;-73
2023/07/20 00:19:08;;;;;;;4.80;2.30;;;;;;;;;;7377526;19;20017;-73
2023/07/20 00:21:33;;;;;;;4.90;2.13;;;;;;;;;;7375528;19;20007;-73
2023/07/20 00:23:59;;;;;;;5.43;2.55;;;;;;;;;;7372406;19;20021;-72
2023/07/20 00:26:24;;;;;;;4.78;2.33;;;;;;;;;;7367698;19;20014;-72
2023/07/20 00:28:51;;;;;;;4.72;2.30;;;;;;;;;;7386215;19;20021;-74
2023/07/20 00:31:16;;;;;;;8.93;2.63;;;;;;;;;;7368264;19;20027;-72
2023/07/20 00:33:41;;;;;;;5.63;2.28;;;;;;;;;;7369500;19;20567;-73
2023/07/20 00:36:07;;;;;;;4.47;2.13;;;;;;;;;;7367953;19;20463;-72
2023/07/20 00:38:32;;;;;;;3.95;2.15;;;;;;;;;;7366775;19;20003;-72
2023/07/20 00:40:58;;;;;;;6.72;2.38;;;;;;;;;;7366543;19;20010;-72
2023/07/20 00:43:23;;;;;;;5.85;2.45;;;;;;;;;;7388600;19;20007;-72
2023/07/20 00:45:49;;;;;;;5.47;2.50;;;;;;;;;;7369163;19;20014;-73
2023/07/20 00:48:14;;;;;;;7.95;2.65;;;;;;;;;;7374651;19;20028;-72
2023/07/20 00:50:40;;;;;;;5.57;2.42;;;;;;;;;;7386308;19;20010;-73
2023/07/20 00:53:06;;;;;;;9.07;2.60;;;;;;;;;;7387711;19;20021;-73
2023/07/20 00:55:32;;;;;;;5.57;2.42;;;;;;;;;;7404773;19;20028;-73
2023/07/20 00:57:59;;;;;;;6.78;2.97;;;;;;;;;;7381357;19;20454;-72
2023/07/20 01:00:24;;;;;;;6.88;2.22;;;;;;;;;;7371538;19;20029;-73
2023/07/20 01:02:50;;;;;;;6.03;2.47;;;;;;;;;;7370947;19;20046;-73
2023/07/20 01:05:18;;;;;;;5.97;2.58;;;;;;;;;;7369552;19;20006;-72
2023/07/20 01:08:07;;;;;;;6.10;2.60;;;;;;;;;;7389358;19;22001;-73
2023/07/20 01:10:57;;;;;;;5.15;2.63;;;;;;;;;;7369918;19;20014;-73
2023/07/20 01:13:23;;;;;;;8.95;2.38;;;;;;;;;;7369567;19;20010;-73
2023/07/20 01:15:57;;;;;;;5.32;2.10;;;;;;;;;;7367035;19;20010;-73
2023/07/20 01:18:22;;;;;;;5.93;2.65;;;;;;;;;;7367030;19;20015;-72
2023/07/20 01:20:48;;;;;;;7.03;2.67;;;;;;;;;;7367511;19;20805;-73
2023/07/20 01:23:35;;;;;;;5.32;2.28;;;;;;;;;;7369452;19;20458;-72
2023/07/20 01:26:19;;;;;;;4.70;2.38;;;;;;;;;;7366652;19;20014;-72
2023/07/20 01:29:06;;;;;;;5.53;2.40;;;;;;;;;;7386262;19;20002;-72
2023/07/20 01:31:34;;;;;;;5.13;2.20;;;;;;;;;;7368225;19;20017;-73
2023/07/20 01:34:01;;;;;;;7.22;2.30;;;;;;;;;;7365430;19;20010;-72
2023/07/20 01:36:30;;;;;;;5.55;2.25;;;;;;;;;;7366446;19;20021;-72
2023/07/20 01:38:56;;;;;;;4.80;1.92;;;;;;;;;;7363914;19;20015;-73
2023/07/20 01:41:22;;;;;;;5.72;2.40;;;;;;;;;;7365520;19;20361;-73
2023/07/20 01:43:48;;;;;;;4.43;2.30;;;;;;;;;;7387499;19;20557;-73
2023/07/20 01:46:13;;;;;;;5.20;2.20;;;;;;;;;;7365001;19;20018;-73
2023/07/20 01:48:39;;;;;;;4.45;2.28;;;;;;;;;;7366645;19;20010;-72
2023/07/20 01:51:04;;;;;;;4.50;2.22;;;;;;;;;;7366216;19;20031;-74
2023/07/20 01:53:30;;;;;;;4.90;2.38;;;;;;;;;;7363442;19;20006;-72
2023/07/20 01:55:56;;;;;;;5.90;2.58;;;;;;;;;;7363760;19;20086;-74
2023/07/20 01:58:22;;;;;;;8.82;2.47;;;;;;;;;;7385320;19;20034;-73
2023/07/20 02:00:47;;;;;;;5.15;2.30;;;;;;;;;;7363961;19;20011;-72
2023/07/20 02:03:13;;;;;;;6.78;2.38;;;;;;;;;;7364576;19;20010;-72
2023/07/20 02:05:38;;;;;;;5.13;2.33;;;;;;;;;;7365865;19;20011;-74
2023/07/20 02:08:04;;;;;;;4.70;2.08;;;;;;;;;;7363670;19;20797;-73
2023/07/20 02:10:29;;;;;;;7.95;2.53;;;;;;;;;;7384197;19;20031;-72
2023/07/20 02:12:55;;;;;;;5.78;2.40;;;;;;;;;;7363685;19;20050;-72
2023/07/20 02:15:21;;;;;;;6.43;2.50;;;;;;;;;;7365043;19;20009;-74
2023/07/20 02:17:46;;;;;;;4.22;2.10;;;;;;;;;;7365729;19;20019;-74
2023/07/20 02:20:12;;;;;;;6.47;2.47;;;;;;;;;;7367106;19;20023;-72
2023/07/20 02:22:38;;;;;;;8.05;2.42;;;;;;;;;;7388711;19;20002;-72
2023/07/20 02:25:04;;;;;;;4.50;2.30;;;;;;;;;;7363948;19;20019;-72
2023/07/20 02:27:30;;;;;;;5.93;2.30;;;;;;;;;;7362617;19;20003;-72
2023/07/20 02:29:55;;;;;;;9.20;2.50;;;;;;;;;;7364428;19;20499;-72
2023/07/20 02:32:21;;;;;;;4.68;2.17;;;;;;;;;;7363217;19;20010;-72
2023/07/20 02:34:46;;;;;;;5.13;2.25;;;;;;;;;;7384217;19;20010;-72
2023/07/20 02:37:12;;;;;;;7.38;2.28;;;;;;;;;;7363470;19;20021;-73
2023/07/20 02:39:39;;;;;;;6.03;2.17;;;;;;;;;;7363775;19;20018;-73
2023/07/20 02:42:04;;;;;;;6.20;2.40;;;;;;;;;;7362594;19;20014;-73
2023/07/20 02:44:32;;;;;;;7.63;2.20;;;;;;;;;;7363955;19;20018;-73
2023/07/20 02:46:57;;;;;;;7.80;2.50;;;;;;;;;;7363023;19;20010;-73
2023/07/20 02:49:23;;;;;;;4.68;2.30;;;;;;;;;;7385085;19;20524;-73
2023/07/20 02:51:48;;;;;;;6.07;2.47;;;;;;;;;;7361836;19;20063;-73
2023/07/20 02:54:14;;;;;;;4.40;2.28;;;;;;;;;;7361625;19;20049;-73
2023/07/20 02:56:39;;;;;;;4.97;2.28;;;;;;;;;;7363033;19;19998;-74
2023/07/20 02:59:05;;;;;;;7.05;2.60;;;;;;;;;;7362966;19;20070;-73
2023/07/20 03:01:30;;;;;;;5.22;2.30;;;;;;;;;;7380156;19;20451;-73
2023/07/20 03:03:56;;;;;;;4.70;2.15;;;;;;;;;;7362967;19;20035;-74
2023/07/20 03:06:21;;;;;;;7.97;3.17;;;;;;;;;;7358533;19;20002;-72
2023/07/20 03:08:48;;;;;;;5.47;2.67;;;;;;;;;;7366927;19;20015;-72
2023/07/20 03:11:15;;;;;;;4.00;2.10;;;;;;;;;;7370061;19;20461;-72
2023/07/20 03:13:42;;;;;;;7.15;2.50;;;;;;;;;;7390726;19;20627;-74
2023/07/20 03:16:10;;;;;;;4.85;2.13;;;;;;;;;;7369540;19;20056;-74
2023/07/20 03:18:39;;;;;;;7.65;2.40;;;;;;;;;;7370646;19;20021;-73
2023/07/20 03:21:08;;;;;;;5.68;2.42;;;;;;;;;;7371276;19;20014;-73
2023/07/20 03:23:33;;;;;;;5.07;2.25;;;;;;;;;;7371341;19;20986;-73
2023/07/20 03:25:59;;;;;;;5.38;2.28;;;;;;;;;;7370013;19;20043;-73
2023/07/20 03:28:24;;;;;;;5.88;2.47;;;;;;;;;;7389149;19;20025;-73
2023/07/20 03:30:54;;;;;;;5.53;2.30;;;;;;;;;;7371110;19;20099;-73
2023/07/20 03:33:20;;;;;;;6.53;2.57;;;;;;;;;;7367732;19;20855;-73
2023/07/20 03:35:45;;;;;;;5.90;2.55;;;;;;;;;;7367314;19;20022;-73
2023/07/20 03:38:10;;;;;;;4.72;2.40;;;;;;;;;;7369078;19;20006;-73
2023/07/20 03:40:36;;;;;;;3.58;2.10;;;;;;;;;;7391619;19;20007;-73
2023/07/20 03:43:02;;;;;;;6.65;2.30;;;;;;;;;;7369184;19;20007;-72
2023/07/20 03:45:27;;;;;;;7.43;2.10;;;;;;;;;;7368800;19;20007;-73
2023/07/20 03:47:52;;;;;;;5.28;2.33;;;;;;;;;;7367776;19;20054;-73
2023/07/20 03:50:18;;;;;;;8.25;2.63;;;;;;;;;;7365852;19;20045;-73
2023/07/20 03:52:43;;;;;;;6.10;2.60;;;;;;;;;;7391965;19;20010;-72
2023/07/20 03:55:08;;;;;;;5.82;2.15;;;;;;;;;;7367852;19;20018;-73
2023/07/20 03:57:34;;;;;;;6.90;2.75;;;;;;;;;;7374260;19;20086;-72
2023/07/20 03:59:59;;;;;;;4.95;2.15;;;;;;;;;;7377026;19;20003;-73
2023/07/20 04:02:25;;;;;;;8.05;2.25;;;;;;;;;;7374803;19;20019;-73
2023/07/20 04:04:50;;;;;;;5.20;2.60;;;;;;;;;;7399055;19;20018;-73
2023/07/20 04:07:16;;;;;;;5.03;2.20;;;;;;;;;;7375735;19;20333;-73
2023/07/20 04:09:41;;;;;;;5.65;2.47;;;;;;;;;;7373112;19;20017;-73
2023/07/20 04:12:07;;;;;;;6.82;2.40;;;;;;;;;;7375100;19;20022;-72
2023/07/20 04:14:32;;;;;;;4.97;2.30;;;;;;;;;;7372109;19;20022;-73
2023/07/20 04:17:00;;;;;;;5.63;2.13;;;;;;;;;;7370253;19;20032;-75
2023/07/20 04:19:25;;;;;;;5.07;2.40;;;;;;;;;;7394527;19;20018;-74
2023/07/20 04:21:51;;;;;;;4.78;2.28;;;;;;;;;;7370011;19;20341;-74
2023/07/20 04:24:16;;;;;;;8.75;2.45;;;;;;;;;;7373249;19;20142;-73
2023/07/20 04:26:41;;;;;;;7.78;2.58;;;;;;;;;;7369509;19;20042;-73
2023/07/20 04:29:06;;;;;;;4.07;2.10;;;;;;;;;;7369283;19;20344;-73
2023/07/20 04:31:33;;;;;;;5.05;2.13;;;;;;;;;;7388076;19;20472;-73
2023/07/20 04:33:58;;;;;;;3.78;2.03;;;;;;;;;;7365355;19;20487;-72
2023/07/20 04:36:23;;;;;;;4.40;2.33;;;;;;;;;;7369166;19;20011;-72
2023/07/20 04:38:49;;;;;;;4.10;1.98;;;;;;;;;;7365936;19;20011;-72
2023/07/20 04:41:14;;;;;;;7.57;2.85;;;;;;;;;;7366383;19;20018;-72
2023/07/20 04:43:43;;;;;;;4.15;2.30;;;;;;;;;;7390790;19;20921;-72
2023/07/20 04:46:10;;;;;;;6.68;2.50;;;;;;;;;;7369652;19;20042;-72
2023/07/20 04:48:35;;;;;;;5.93;2.60;;;;;;;;;;7370548;19;20070;-73
2023/07/20 04:51:00;;;;;;;3.75;2.30;;;;;;;;;;7371614;19;20030;-73
2023/07/20 04:53:26;;;;;;;5.60;2.13;;;;;;;;;;7369615;19;20692;-73
2023/07/20 04:55:51;;;;;;;3.65;2.10;;;;;;;;;;7393312;19;20010;-73
2023/07/20 04:58:26;;;;;;;4.25;2.22;;;;;;;;;;7368625;19;20483;-73
2023/07/20 05:00:51;;;;;;;5.57;2.30;;;;;;;;;;7369314;19;20343;-73
2023/07/20 05:03:17;;;;;;;4.68;2.30;;;;;;;;;;7370655;19;20014;-71
2023/07/20 05:05:43;;;;;;;4.82;2.08;;;;;;;;;;7369965;19;20334;-71
2023/07/20 05:08:09;;;;;;;4.70;2.00;;;;;;;;;;7367761;19;20027;-72
2023/07/20 05:10:34;;;;;;;8.13;2.50;;;;;;;;;;7389514;19;20456;-60
2023/07/20 05:12:59;;;;;;;4.13;2.15;;;;;;;;;;7368063;19;20594;-59
2023/07/20 05:15:25;;;;;;;5.53;2.00;;;;;;;;;;7363373;19;20053;-59
2023/07/20 05:17:50;;;;;;;14.73;3.55;;;;;;;;;;7366975;19;20025;-59
2023/07/20 05:20:16;;;;;;;7.40;2.33;;;;;;;;;;7346694;19;20574;-58
2023/07/20 05:22:42;;;;;;;6.47;2.28;;;;;;;;;;7380615;19;20009;-58
2023/07/20 05:25:09;;;;;;;10.85;2.45;;;;;;;;;;7366246;19;20020;-55
2023/07/20 05:27:36;;;;;;;3.90;2.00;;;;;;;;;;7366951;19;20038;-56
2023/07/20 05:30:02;;;;;;;5.18;2.22;;;;;;;;;;7366509;19;20038;-64
2023/07/20 05:32:27;;;;;;;4.05;2.10;;;;;;;;;;7363916;19;20028;-58
2023/07/20 05:34:54;;;;;;;5.45;2.30;;;;;;;;;;7374586;19;20102;-57
2023/07/20 05:37:19;;;;;;;7.63;2.00;;;;;;;;;;7387103;19;20501;-58
2023/07/20 05:39:44;;;;;;;4.65;2.28;;;;;;;;;;7367904;19;20022;-59
2023/07/20 05:42:10;;;;;;;5.80;2.10;;;;;;;;;;7367076;19;20006;-58
2023/07/20 05:44:35;;;;;;;7.68;2.00;;;;;;;;;;7368584;19;19998;-72
2023/07/20 05:47:02;;;;;;;4.50;1.98;;;;;;;;;;7369575;19;20002;-73
2023/07/20 05:49:28;;;;;;;5.13;2.00;;;;;;;;;;7390758;19;20006;-72
2023/07/20 05:51:55;;;;;;;4.53;1.90;;;;;;;;;;7366017;19;20046;-72
2023/07/20 05:54:20;;;;;;;5.10;2.10;;;;;;;;;;7365538;19;20014;-72
2023/07/20 05:56:46;;;;;;;7.07;2.30;;;;;;;;;;7369485;19;20730;-72
2023/07/20 05:59:11;;;;;;;5.88;2.25;;;;;;;;;;7369271;19;20107;-72
2023/07/20 06:01:37;;;;;;;5.63;2.20;;;;;;;;;;7387716;19;20464;-72
2023/07/20 06:04:03;;;;;;;4.93;1.90;;;;;;;;;;7368678;19;20102;-72
2023/07/20 06:06:29;;;;;;;5.18;2.00;;;;;;;;;;7367834;19;20062;-72
2023/07/20 06:08:54;;;;;;;3.97;1.80;;;;;;;;;;7365825;19;20014;-72
2023/07/20 06:11:20;;;;;;;10.00;2.30;;;;;;;;;;7365367;19;20234;-72
2023/07/20 06:13:45;;;;;;;7.03;2.28;;;;;;;;;;7388638;19;20411;-73
2023/07/20 06:16:10;;;;;;;10.27;2.20;;;;;;;;;;7366484;19;20015;-73
2023/07/20 06:18:36;;;;;;;6.25;2.20;;;;;;;;;;7379180;19;20112;-73
2023/07/20 06:21:01;;;;;;;4.18;1.80;;;;;;;;;;7371960;19;20018;-72
2023/07/20 06:23:26;;;;;;;6.97;2.30;;;;;;;;;;7370482;19;20006;-72
2023/07/20 06:25:52;;;;;;;11.30;2.67;;;;;;;;;;7390868;19;20023;-71
2023/07/20 06:28:18;;;;;;;8.80;2.08;;;;;;;;;;7366256;19;20027;-72
2023/07/20 06:30:43;;;;;;;7.45;2.38;;;;;;;;;;7364708;19;20662;-72
2023/07/20 06:33:08;;;;;;;10.65;2.63;;;;;;;;;;7368752;19;20014;-72
2023/07/20 06:35:35;;;;;;;9.65;2.53;;;;;;;;;;7366432;19;20037;-72
2023/07/20 06:38:01;;;;;;;6.68;2.13;;;;;;;;;;7363429;19;20340;-72
2023/07/20 06:40:26;;;;;;;5.65;2.00;;;;;;;;;;7385486;19;20023;-72
2023/07/20 06:42:52;;;;;;;5.05;2.17;;;;;;;;;;7366636;19;20026;-72
2023/07/20 06:45:17;;;;;;;6.78;2.40;;;;;;;;;;7372810;19;20031;-72
2023/07/20 06:47:43;;;;;;;5.15;2.40;;;;;;;;;;7370622;19;20003;-72
2023/07/20 06:50:09;;;;;;;5.10;2.10;;;;;;;;;;7371288;19;20002;-72
2023/07/20 06:52:35;;;;;;;4.75;2.22;;;;;;;;;;7394313;19;20350;-71
2023/07/20 06:55:00;;;;;;;5.97;2.17;;;;;;;;;;7371185;19;20010;-71
2023/07/20 06:57:26;;;;;;;6.55;2.20;;;;;;;;;;7371038;19;20077;-72
2023/07/20 06:59:51;;;;;;;8.75;2.80;;;;;;;;;;7373243;19;20010;-72
2023/07/20 07:02:16;;;;;;;5.53;2.35;;;;;;;;;;7372447;19;20097;-71
2023/07/20 07:04:42;;;;;;;4.32;2.40;;;;;;;;;;7383467;19;19995;-71
2023/07/20 07:07:08;;;;;;;8.02;2.42;;;;;;;;;;7370533;19;20014;-72
2023/07/20 07:09:34;;;;;;;5.90;2.58;;;;;;;;;;7373145;19;20007;-72
2023/07/20 07:11:59;;;;;;;4.50;2.20;;;;;;;;;;7370600;19;20377;-72
2023/07/20 07:14:24;;;;;;;6.22;2.15;;;;;;;;;;7369812;19;20021;-73
2023/07/20 07:16:50;;;;;;;10.15;2.65;;;;;;;;;;7393257;19;20054;-73
2023/07/20 07:19:15;;;;;;;6.40;2.33;;;;;;;;;;7369568;19;20009;-73
2023/07/20 07:21:40;;;;;;;6.32;2.92;;;;;;;;;;7371470;19;20009;-73
2023/07/20 07:24:07;;;;;;;4.28;2.00;;;;;;;;;;7371186;19;20021;-74
2023/07/20 07:26:33;;;;;;;5.55;2.42;;;;;;;;;;7370214;19;20050;-73
2023/07/20 07:28:58;;;;;;;6.80;2.38;;;;;;;;;;7375304;19;20066;-75
2023/07/20 07:31:25;;;;;;;4.97;2.22;;;;;;;;;;7388757;19;20007;-75
2023/07/20 07:33:50;;;;;;;5.50;2.50;;;;;;;;;;7369877;19;20428;-75
2023/07/20 07:36:16;;;;;;;7.10;2.42;;;;;;;;;;7371116;19;20047;-74
2023/07/20 07:38:41;;;;;;;5.38;2.33;;;;;;;;;;7370537;19;20006;-75
2023/07/20 07:41:06;;;;;;;4.80;2.28;;;;;;;;;;7374474;19;20013;-77
2023/07/20 07:43:33;;;;;;;5.25;2.20;;;;;;;;;;7406894;19;20027;-77
2023/07/20 07:45:58;;;;;;;4.65;2.10;;;;;;;;;;7378118;19;20011;-77
2023/07/20 07:48:25;;;;;;;3.95;1.92;;;;;;;;;;7380313;19;20010;-75
2023/07/20 07:50:50;;;;;;;4.85;2.20;;;;;;;;;;7376024;19;20014;-76
2023/07/20 07:53:16;;;;;;;7.13;2.67;;;;;;;;;;7372568;19;20020;-77
2023/07/20 07:55:41;;;;;;;5.72;2.30;;;;;;;;;;7394768;19;20046;-81
2023/07/20 07:58:06;;;;;;;9.18;2.55;;;;;;;;;;7375828;19;20011;-79
2023/07/20 08:00:32;;;;;;;7.28;2.47;;;;;;;;;;7388617;19;20006;-79
2023/07/20 08:02:58;;;;;;;4.88;2.17;;;;;;;;;;7399461;19;20021;-78
2023/07/20 08:05:24;;;;;;;3.70;2.00;;;;;;;;;;7399250;19;20132;-78
2023/07/20 08:07:49;;;;;;;6.72;1.90;;;;;;;;;;7405683;19;20011;-78
2023/07/20 08:10:14;;;;;;;7.97;2.40;;;;;;;;;;7378671;19;20074;-79
2023/07/20 08:12:39;;;;;;;8.20;2.42;;;;;;;;;;7373455;19;20065;-75
2023/07/20 08:15:05;;;;;;;5.20;1.98;;;;;;;;;;7383727;19;20040;-79
2023/07/20 08:17:31;;;;;;;4.72;2.03;;;;;;;;;;7383539;19;20006;-78
2023/07/20 08:19:56;;;;;;;4.55;1.90;;;;;;;;;;7372193;19;20018;-78
2023/07/20 08:22:21;;;;;;;6.82;2.28;;;;;;;;;;7395065;19;20011;-76
2023/07/20 08:24:46;;;;;;;6.32;2.00;;;;;;;;;;7369695;19;20009;-76
2023/07/20 08:27:12;;;;;;;7.20;2.20;;;;;;;;;;7374379;19;20010;-79
2023/07/20 08:29:38;;;;;;;3.83;2.00;;;;;;;;;;7373173;19;20006;-74
2023/07/20 08:32:04;;;;;;;6.72;2.55;;;;;;;;;;7366678;19;20405;-74
2023/07/20 08:34:30;;;;;;;6.68;2.00;;;;;;;;;;7389403;19;20121;-73
2023/07/20 08:36:56;;;;;;;6.07;2.15;;;;;;;;;;7368524;19;20003;-74
2023/07/20 08:39:22;;;;;;;4.85;2.15;;;;;;;;;;7369148;19;20048;-72
2023/07/20 08:41:48;;;;;;;4.93;1.92;;;;;;;;;;7370241;19;20097;-75
2023/07/20 08:44:14;;;;;;;5.05;1.92;;;;;;;;;;7373352;19;20514;-80
2023/07/20 08:46:40;;;;;;;3.13;1.90;;;;;;;;;;7399881;19;20006;-78
2023/07/20 08:49:06;;;;;;;4.63;2.15;;;;;;;;;;7377601;19;21007;-84
2023/07/20 08:51:33;;;;;;;4.80;1.98;;;;;;;;;;7376342;19;20010;-78
2023/07/20 08:53:59;;;;;;;4.72;2.00;;;;;;;;;;7376054;19;20115;-81
2023/07/20 08:56:26;;;;;;;6.07;2.10;;;;;;;;;;7375720;19;20142;-84
2023/07/20 08:58:56;;;;;;;6.18;1.90;;;;;;;;;;7395207;19;20027;-81
2023/07/20 09:01:22;;;;;;;4.45;2.10;;;;;;;;;;7386372;19;20010;-81
2023/07/20 09:03:48;;;;;;;4.10;2.03;;;;;;;;;;7386777;19;20015;-81
2023/07/20 09:06:14;;;;;;;3.45;1.90;;;;;;;;;;7384105;19;20015;-83
2023/07/20 09:08:40;;;;;;;9.55;2.22;;;;;;;;;;7388263;19;20483;-80
2023/07/20 09:11:06;;;;;;;4.57;1.80;;;;;;;;;;7371664;19;20094;-77
2023/07/20 09:13:34;;;;;;;6.30;1.92;;;;;;;;;;7390442;19;20015;-76
2023/07/20 09:16:00;;;;;;;4.43;2.20;;;;;;;;;;7369586;19;20042;-76
2023/07/20 09:18:25;;;;;;;3.33;1.92;;;;;;;;;;7368738;19;20014;-78
2023/07/20 09:20:50;;;;;;;3.58;2.00;;;;;;;;;;7369126;19;20015;-77
2023/07/20 09:23:16;;;;;;;4.25;2.08;;;;;;;;;;7367391;19;20006;-76
2023/07/20 09:25:42;;;;;;;4.90;1.95;;;;;;;;;;7391435;19;20001;-78
2023/07/20 09:28:07;;;;;;;6.03;1.77;;;;;;;;;;7367228;19;20015;-79
2023/07/20 09:30:32;;;;;;;5.15;1.98;;;;;;;;;;7370146;19;20029;-77
2023/07/20 09:32:58;;;;;;;3.63;2.00;;;;;;;;;;7367367;19;20010;-74
2023/07/20 09:35:24;;;;;;;5.13;2.00;;;;;;;;;;7365962;19;20010;-72
2023/07/20 09:38:00;;;;;;;5.75;2.08;;;;;;;;;;7387973;19;20019;-77
2023/07/20 09:40:26;;;;;;;3.83;1.88;;;;;;;;;;7367899;19;20044;-77
2023/07/20 09:42:59;;;;;;;5.20;2.10;;;;;;;;;;7367237;19;20073;-76
2023/07/20 09:45:29;;;;;;;5.22;2.22;;;;;;;;;;7366670;19;20007;-75
2023/07/20 09:48:03;;;;;;;4.10;1.80;;;;;;;;;;7366603;19;20751;-72
2023/07/20 09:50:28;;;;;;;3.35;2.00;;;;;;;;;;7363653;19;20034;-70
2023/07/20 09:52:54;;;;;;;3.95;2.13;;;;;;;;;;7373763;19;20107;-74
2023/07/20 09:55:21;;;;;;;6.55;2.13;;;;;;;;;;7397089;19;20038;-72
2023/07/20 09:57:46;;;;;;;3.60;2.10;;;;;;;;;;7365154;19;20011;-70
2023/07/20 10:00:13;;;;;;;3.75;1.80;;;;;;;;;;7365352;19;20003;-70
2023/07/20 10:02:44;;;;;;;4.03;2.10;;;;;;;;;;7365303;19;20017;-70
2023/07/20 10:05:14;;;;;;;5.32;2.13;;;;;;;;;;7360817;19;20026;-70
2023/07/20 10:07:45;;;;;;;5.38;1.75;;;;;;;;;;7385620;19;20740;-70
2023/07/20 10:10:11;;;;;;;;;;;;;;;;;;7363988;19;20810;-70
2023/07/20 10:12:39;;;;;;;4.57;2.28;;;;;;;;;;7364474;19;19922;-70
2023/07/20 10:15:11;;;;;;;4.35;2.10;;;;;;;;;;7366450;19;20007;-70
2023/07/20 10:17:49;;;;;;;4.63;2.00;;;;;;;;;;7363552;19;20006;-70
2023/07/20 10:20:17;;;;;;;7.53;2.67;;;;;;;;;;7364889;19;20022;-70
2023/07/20 10:22:47;;;;;;;3.20;2.03;;;;;;;;;;7386245;19;20031;-78
2023/07/20 10:25:13;;;;;;;8.48;2.90;;;;;;;;;;7364441;19;20006;-76
2023/07/20 10:27:39;;;;;;;4.47;2.00;;;;;;;;;;7369805;19;20010;-79
2023/07/20 10:30:05;;;;;;;4.57;1.80;;;;;;;;;;7371982;19;20019;-78
2023/07/20 10:32:31;;;;;;;4.32;2.20;;;;;;;;;;7375459;19;20019;-80
2023/07/20 10:34:56;;;;;;;7.13;2.10;;;;;;;;;;7377035;19;20474;-79
2023/07/20 10:37:50;;;;;;;5.05;1.90;;;;;;;;;;7393704;19;20018;-78
2023/07/20 10:40:28;;;;;;;4.28;2.10;;;;;;;;;;7365486;19;20010;-77
2023/07/20 10:43:01;;;;;;;3.58;1.80;;;;;;;;;;7367246;19;20015;-78
2023/07/20 10:45:49;;;;;;;5.35;2.10;;;;;;;;;;7366882;19;20484;-77
2023/07/20 10:48:25;;;;;;;4.65;1.98;;;;;;;;;;7365724;19;20082;-72
2023/07/20 10:51:14;;;;;;;4.53;1.88;;;;;;;;;;7363633;19;20011;-71
2023/07/20 10:53:39;;;;;;;6.70;2.35;;;;;;;;;;7365454;19;20475;-75
2023/07/20 10:56:11;;;;;;;2.95;1.83;;;;;;;;;;7366463;19;20002;-73
2023/07/20 10:58:36;;;;;;;4.78;1.92;;;;;;;;;;7386025;19;20007;-70
2023/07/20 11:01:05;;;;;;;4.53;1.92;;;;;;;;;;7363636;19;20011;-72
2023/07/20 11:03:40;;;;;;;5.38;2.03;;;;;;;;;;7364866;19;20021;-71
2023/07/20 11:06:23;;;;;;;4.70;1.88;;;;;;;;;;7362621;19;20014;-76
2023/07/20 11:08:54;;;;;;;5.78;2.13;;;;;;;;;;7361706;19;20391;-76
2023/07/20 11:11:28;;;;;;;5.65;2.10;;;;;;;;;;7362963;19;20007;-78
2023/07/20 11:13:58;;;;;;;4.43;1.98;;;;;;;;;;7368980;19;20333;-78
2023/07/20 11:16:44;;;;;;;4.85;2.35;;;;;;;;;;7389056;19;20018;-73
2023/07/20 11:19:18;;;;;;;4.47;2.03;;;;;;;;;;7369269;19;20345;-72
2023/07/20 11:21:46;;;;;;;4.35;2.10;;;;;;;;;;7365131;19;19998;-72
2023/07/20 11:24:13;;;;;;;3.08;1.90;;;;;;;;;;7366486;19;20007;-80
2023/07/20 11:26:46;;;;;;;5.25;2.00;;;;;;;;;;7366593;19;20066;-77
2023/07/20 11:29:12;;;;;;;4.63;2.00;;;;;;;;;;7363962;19;19998;-76
2023/07/20 11:31:39;;;;;;;5.72;2.15;;;;;;;;;;7397585;19;20481;-79
2023/07/20 11:34:05;;;;;;;4.60;2.08;;;;;;;;;;7373748;19;20465;-79
2023/07/20 11:36:31;;;;;;;6.70;2.30;;;;;;;;;;7374744;19;20014;-76
2023/07/20 11:38:57;;;;;;;4.80;2.13;;;;;;;;;;7368928;19;20706;-77
2023/07/20 11:41:22;;;;;;;3.97;1.92;;;;;;;;;;7368883;19;20007;-76
2023/07/20 11:43:48;;;;;;;4.40;2.00;;;;;;;;;;7393791;19;19998;-77
2023/07/20 11:46:13;;;;;;;4.38;1.90;;;;;;;;;;7372715;19;20014;-74
2023/07/20 11:48:39;;;;;;;6.25;2.35;;;;;;;;;;7369991;19;20003;-73
2023/07/20 11:51:05;;;;;;;4.35;2.13;;;;;;;;;;7367420;19;20010;-74
2023/07/20 11:53:32;;;;;;;7.40;2.10;;;;;;;;;;7368993;19;20089;-68
2023/07/20 11:55:58;;;;;;;4.22;2.20;;;;;;;;;;7372614;19;20020;-66
2023/07/20 11:58:23;;;;;;;4.40;1.95;;;;;;;;;;7396629;19;19994;-65
2023/07/20 12:00:49;;;;;;;4.03;1.85;;;;;;;;;;7373380;19;20025;-66
2023/07/20 12:03:14;;;;;;;6.53;2.20;;;;;;;;;;7369035;19;20007;-66
2023/07/20 12:05:40;;;;;;;4.30;2.03;;;;;;;;;;7368244;19;20017;-66
2023/07/20 12:08:05;;;;;;;6.32;2.40;;;;;;;;;;7366705;19;20003;-65
2023/07/20 12:10:31;;;;;;;3.65;2.10;;;;;;;;;;7390134;19;20009;-66
2023/07/20 12:13:03;;;;;;;8.68;2.03;;;;;;;;;;7367904;19;20730;-66
2023/07/20 12:15:32;;;;;;;4.22;2.00;;;;;;;;;;7368591;19;20009;-66
2023/07/20 12:18:01;;;;;;;6.03;2.03;;;;;;;;;;7369735;19;19999;-66
2023/07/20 12:20:29;;;;;;;6.30;2.03;;;;;;;;;;7368591;19;20410;-62
2023/07/20 12:23:05;;;;;;;5.18;1.83;;;;;;;;;;7369189;19;20574;-62
2023/07/20 12:25:44;;;;;;;3.47;1.92;;;;;;;;;;7391224;19;20007;-62
2023/07/20 12:28:14;;;;;;;4.68;2.00;;;;;;;;;;7366227;19;20009;-62
2023/07/20 12:30:40;;;;;;;;;;;;;;;;;;7368062;19;20090;-61
2023/07/20 12:33:06;;;;;;;8.52;2.20;;;;;;;;;;7369370;19;19910;-61
2023/07/20 12:35:32;;;;;;;3.33;1.90;;;;;;;;;;7368783;19;20013;-70
2023/07/20 12:37:58;;;;;;;5.03;1.90;;;;;;;;;;7367689;19;20331;-61
2023/07/20 12:40:24;;;;;;;5.15;2.10;;;;;;;;;;7389654;19;20001;-60
2023/07/20 12:42:49;;;;;;;3.75;2.10;;;;;;;;;;7371961;19;20015;-60
2023/07/20 12:45:15;;;;;;;3.90;1.98;;;;;;;;;;7372394;19;20078;-59
2023/07/20 12:47:42;;;;;;;4.70;2.13;;;;;;;;;;7370938;19;20019;-60
2023/07/20 12:50:08;;;;;;;5.47;1.90;;;;;;;;;;7367282;19;20458;-59
2023/07/20 12:52:38;;;;;;;7.22;2.17;;;;;;;;;;7388622;19;20006;-59
2023/07/20 12:55:04;;;;;;;;;;;;;;;;;;7366828;19;20023;-60
2023/07/20 12:57:30;;;;;;;5.55;2.33;;;;;;;;;;7367569;19;19922;-61
2023/07/20 12:59:55;;;;;;;4.97;1.95;;;;;;;;;;7366834;19;20559;-60
2023/07/20 13:02:20;;;;;;;3.42;1.90;;;;;;;;;;7366872;19;20491;-61
2023/07/20 13:04:46;;;;;;;6.60;2.05;;;;;;;;;;7389208;19;20002;-63
2023/07/20 13:07:11;;;;;;;2.45;1.75;;;;;;;;;;7367236;19;20010;-64
2023/07/20 13:09:37;;;;;;;2.88;1.65;;;;;;;;;;7367310;19;20027;-64
2023/07/20 13:12:03;;;;;;;4.40;1.85;;;;;;;;;;7366804;19;20003;-64
2023/07/20 13:14:29;;;;;;;5.38;2.05;;;;;;;;;;7366453;19;20105;-60
2023/07/20 13:16:55;;;;;;;4.80;2.10;;;;;;;;;;7361719;19;20009;-62
2023/07/20 13:19:21;;;;;;;5.38;2.10;;;;;;;;;;7388300;19;20002;-65
2023/07/20 13:21:46;;;;;;;3.95;1.70;;;;;;;;;;7367048;19;20009;-61
2023/07/20 13:24:11;;;;;;;4.78;2.10;;;;;;;;;;7368610;19;20126;-62
2023/07/20 13:26:37;;;;;;;4.55;1.77;;;;;;;;;;7367198;19;19998;-63
2023/07/20 13:29:02;;;;;;;4.25;2.08;;;;;;;;;;7366856;19;19994;-62
2023/07/20 13:31:28;;;;;;;4.53;2.15;;;;;;;;;;7387078;19;19995;-65
2023/07/20 13:33:53;;;;;;;4.15;1.70;;;;;;;;;;7366183;19;20011;-65
2023/07/20 13:36:18;;;;;;;5.47;1.80;;;;;;;;;;7365806;19;20019;-66
2023/07/20 13:38:44;;;;;;;2.95;1.90;;;;;;;;;;7364311;19;20341;-67
2023/07/20 13:41:09;;;;;;;6.18;2.00;;;;;;;;;;7364168;19;20578;-68
2023/07/20 13:43:34;;;;;;;4.90;2.20;;;;;;;;;;7388222;19;19998;-68
2023/07/20 13:46:00;;;;;;;4.47;1.80;;;;;;;;;;7365242;19;20074;-66
2023/07/20 13:48:25;;;;;;;3.20;1.93;;;;;;;;;;7364239;19;20015;-62
2023/07/20 13:50:51;;;;;;;2.85;1.73;;;;;;;;;;7364663;19;20267;-63
2023/07/20 13:53:16;;;;;;;3.63;2.00;;;;;;;;;;7363745;19;20048;-63
2023/07/20 13:55:42;;;;;;;3.57;1.80;;;;;;;;;;7385631;19;20006;-63
2023/07/20 13:58:09;;;;;;;2.88;1.80;;;;;;;;;;7363236;19;20267;-63
2023/07/20 14:00:34;;;;;;;4.30;1.77;;;;;;;;;;7363601;19;20009;-64
2023/07/20 14:03:00;;;;;;;6.30;2.38;;;;;;;;;;7365716;19;20011;-66
2023/07/20 14:05:25;;;;;;;4.38;1.90;;;;;;;;;;7365123;19;20006;-72
2023/07/20 14:07:53;;;;;;;4.43;1.95;;;;;;;;;;7389009;19;20020;-63
2023/07/20 14:10:19;;;;;;;2.20;1.70;;;;;;;;;;7370458;19;20007;-64
2023/07/20 14:12:45;;;;;;;4.15;1.70;;;;;;;;;;7367435;19;20432;-64
2023/07/20 14:15:10;;;;;;;4.15;1.75;;;;;;;;;;7364327;19;20139;-64
2023/07/20 14:17:36;;;;;;;2.58;1.60;;;;;;;;;;7365605;19;20009;-64
2023/07/20 14:20:01;;;;;;;6.57;1.92;;;;;;;;;;7365279;19;20381;-64
2023/07/20 14:22:27;;;;;;;4.18;1.80;;;;;;;;;;7385950;19;19998;-64
2023/07/20 14:24:52;;;;;;;5.40;1.90;;;;;;;;;;7364639;19;20006;-63
2023/07/20 14:27:17;;;;;;;4.68;1.85;;;;;;;;;;7364101;19;20006;-60
2023/07/20 14:29:43;;;;;;;2.63;1.77;;;;;;;;;;7365124;19;20006;-60
2023/07/20 14:32:08;;;;;;;2.92;1.88;;;;;;;;;;7365532;19;20006;-59
2023/07/20 14:34:33;;;;;;;3.47;1.70;;;;;;;;;;7385646;19;20087;-59
2023/07/20 14:36:59;;;;;;;6.18;1.88;;;;;;;;;;7363367;19;20597;-57
2023/07/20 14:39:25;;;;;;;4.57;1.85;;;;;;;;;;7361395;19;20044;-56
2023/07/20 14:41:51;;;;;;;4.03;2.00;;;;;;;;;;7363039;19;20018;-56